sensor_id;sensor_type;location;lat;lon;timestamp;noise_LAeq;noise_LA_min;noise_LA_max;noise_LA01;noise_LA95
46749;Laerm;33775;47.992;11.864;2023-08-24T00:00:13;36.98;28.67;39.58;;
46749;Laerm;33775;47.992;11.864;2023-08-24T00:02:38;36.99;30.89;39.70;;
46749;Laerm;33775;47.992;11.864;2023-08-24T00:05:04;36.98;30.89;39.34;;
46749;Laerm;33775;47.992;11.864;2023-08-24T00:07:30;36.97;30.89;39.46;;
46749;Laerm;33775;47.992;11.864;2023-08-24T00:09:55;36.97;30.89;39.70;;
46749;Laerm;33775;47.992;11.864;2023-08-24T00:12:20;36.94;30.89;39.58;;
46749;Laerm;33775;47.992;11.864;2023-08-24T00:14:46;36.97;30.89;39.68;;
46749;Laerm;33775;47.992;11.864;2023-08-24T00:17:11;36.98;31.68;39.58;;
46749;Laerm;33775;47.992;11.864;2023-08-24T00:19:36;36.95;28.67;39.68;;
46749;Laerm;33775;47.992;11.864;2023-08-24T00:22:01;36.94;30.89;39.70;;
46749;Laerm;33775;47.992;11.864;2023-08-24T00:24:26;36.91;30.89;39.46;;
46749;Laerm;33775;47.992;11.864;2023-08-24T00:26:52;36.91;28.67;39.70;;
46749;Laerm;33775;47.992;11.864;2023-08-24T00:29:17;36.96;30.89;40.03;;
46749;Laerm;33775;47.992;11.864;2023-08-24T00:31:42;36.94;30.89;39.58;;
46749;Laerm;33775;47.992;11.864;2023-08-24T00:34:07;36.96;29.92;39.81;;
46749;Laerm;33775;47.992;11.864;2023-08-24T00:36:32;36.96;30.89;39.58;;
46749;Laerm;33775;47.992;11.864;2023-08-24T00:38:58;36.95;30.89;39.92;;
46749;Laerm;33775;47.992;11.864;2023-08-24T00:41:23;36.97;30.89;39.92;;
46749;Laerm;33775;47.992;11.864;2023-08-24T00:43:50;36.96;30.54;39.81;;
46749;Laerm;33775;47.992;11.864;2023-08-24T00:46:15;36.99;29.92;39.58;;
46749;Laerm;33775;47.992;11.864;2023-08-24T00:48:41;37.00;30.89;39.58;;
46749;Laerm;33775;47.992;11.864;2023-08-24T00:51:06;36.99;31.68;39.92;;
46749;Laerm;33775;47.992;11.864;2023-08-24T00:53:31;36.99;30.89;39.46;;
46749;Laerm;33775;47.992;11.864;2023-08-24T00:55:57;36.99;29.92;39.58;;
46749;Laerm;33775;47.992;11.864;2023-08-24T00:58:23;36.97;30.89;40.03;;
46749;Laerm;33775;47.992;11.864;2023-08-24T01:00:49;36.95;28.67;39.58;;
46749;Laerm;33775;47.992;11.864;2023-08-24T01:03:14;36.95;30.89;39.70;;
46749;Laerm;33775;47.992;11.864;2023-08-24T01:05:39;36.98;29.92;39.46;;
46749;Laerm;33775;47.992;11.864;2023-08-24T01:08:04;36.96;31.68;39.92;;
46749;Laerm;33775;47.992;11.864;2023-08-24T01:10:34;36.94;29.92;39.46;;
46749;Laerm;33775;47.992;11.864;2023-08-24T01:13:11;36.94;30.89;39.81;;
46749;Laerm;33775;47.992;11.864;2023-08-24T01:15:48;36.95;29.92;39.58;;
46749;Laerm;33775;47.992;11.864;2023-08-24T01:18:16;36.99;28.67;39.58;;
46749;Laerm;33775;47.992;11.864;2023-08-24T01:20:44;36.95;29.92;39.46;;
46749;Laerm;33775;47.992;11.864;2023-08-24T01:23:32;36.93;30.89;39.81;;
46749;Laerm;33775;47.992;11.864;2023-08-24T01:28:30;36.97;30.89;39.70;;
46749;Laerm;33775;47.992;11.864;2023-08-24T01:30:55;36.96;31.68;39.70;;
46749;Laerm;33775;47.992;11.864;2023-08-24T01:33:21;36.92;30.54;39.58;;
46749;Laerm;33775;47.992;11.864;2023-08-24T01:35:46;36.97;29.92;39.46;;
46749;Laerm;33775;47.992;11.864;2023-08-24T01:38:11;36.98;28.67;39.68;;
46749;Laerm;33775;47.992;11.864;2023-08-24T01:40:55;36.92;29.92;39.81;;
46749;Laerm;33775;47.992;11.864;2023-08-24T01:43:25;36.95;31.68;39.58;;
46749;Laerm;33775;47.992;11.864;2023-08-24T01:45:52;36.97;29.92;39.81;;
46749;Laerm;33775;47.992;11.864;2023-08-24T01:48:18;36.94;29.92;39.58;;
46749;Laerm;33775;47.992;11.864;2023-08-24T01:50:43;36.93;29.92;39.81;;
46749;Laerm;33775;47.992;11.864;2023-08-24T01:53:09;36.95;29.92;39.70;;
46749;Laerm;33775;47.992;11.864;2023-08-24T01:55:34;36.96;29.92;39.81;;
46749;Laerm;33775;47.992;11.864;2023-08-24T01:57:59;36.97;28.67;39.58;;
46749;Laerm;33775;47.992;11.864;2023-08-24T02:00:25;36.98;29.92;39.58;;
46749;Laerm;33775;47.992;11.864;2023-08-24T02:02:50;36.94;29.92;39.81;;
46749;Laerm;33775;47.992;11.864;2023-08-24T02:05:15;36.92;29.92;39.58;;
46749;Laerm;33775;47.992;11.864;2023-08-24T02:07:40;36.97;31.68;39.70;;
46749;Laerm;33775;47.992;11.864;2023-08-24T02:10:06;36.93;30.89;40.03;;
46749;Laerm;33775;47.992;11.864;2023-08-24T02:12:31;36.93;29.92;39.81;;
46749;Laerm;33775;47.992;11.864;2023-08-24T02:14:56;36.91;31.33;39.70;;
46749;Laerm;33775;47.992;11.864;2023-08-24T02:17:21;36.94;30.89;39.92;;
46749;Laerm;33775;47.992;11.864;2023-08-24T02:19:47;36.95;29.92;39.58;;
46749;Laerm;33775;47.992;11.864;2023-08-24T02:22:12;36.93;28.67;39.81;;
46749;Laerm;33775;47.992;11.864;2023-08-24T02:24:37;36.93;29.57;39.81;;
46749;Laerm;33775;47.992;11.864;2023-08-24T02:27:02;36.94;29.92;39.58;;
46749;Laerm;33775;47.992;11.864;2023-08-24T02:29:28;36.95;28.67;39.70;;
46749;Laerm;33775;47.992;11.864;2023-08-24T02:31:53;36.95;31.68;39.58;;
46749;Laerm;33775;47.992;11.864;2023-08-24T02:34:18;36.92;30.89;39.70;;
46749;Laerm;33775;47.992;11.864;2023-08-24T02:36:43;36.92;30.89;39.58;;
46749;Laerm;33775;47.992;11.864;2023-08-24T02:39:09;36.93;28.67;39.34;;
46749;Laerm;33775;47.992;11.864;2023-08-24T02:41:34;36.93;29.57;39.70;;
46749;Laerm;33775;47.992;11.864;2023-08-24T02:43:59;36.94;29.92;39.58;;
46749;Laerm;33775;47.992;11.864;2023-08-24T02:46:25;36.93;29.92;39.46;;
46749;Laerm;33775;47.992;11.864;2023-08-24T02:48:50;36.94;30.89;39.46;;
46749;Laerm;33775;47.992;11.864;2023-08-24T02:51:15;36.96;28.67;39.70;;
46749;Laerm;33775;47.992;11.864;2023-08-24T02:53:41;36.95;29.92;39.58;;
46749;Laerm;33775;47.992;11.864;2023-08-24T02:56:06;36.95;29.92;39.81;;
46749;Laerm;33775;47.992;11.864;2023-08-24T02:58:31;36.86;30.89;40.13;;
46749;Laerm;33775;47.992;11.864;2023-08-24T03:00:56;36.86;31.68;39.58;;
46749;Laerm;33775;47.992;11.864;2023-08-24T03:03:22;36.92;29.92;39.34;;
46749;Laerm;33775;47.992;11.864;2023-08-24T03:05:57;36.93;29.92;39.46;;
46749;Laerm;33775;47.992;11.864;2023-08-24T03:08:23;36.91;30.89;39.70;;
46749;Laerm;33775;47.992;11.864;2023-08-24T03:10:49;36.84;29.92;39.89;;
46749;Laerm;33775;47.992;11.864;2023-08-24T03:13:14;36.86;29.57;39.92;;
46749;Laerm;33775;47.992;11.864;2023-08-24T03:15:39;36.88;28.67;39.81;;
46749;Laerm;33775;47.992;11.864;2023-08-24T03:18:04;36.89;28.67;39.46;;
46749;Laerm;33775;47.992;11.864;2023-08-24T03:20:29;36.82;29.92;39.46;;
46749;Laerm;33775;47.992;11.864;2023-08-24T03:22:55;36.85;29.92;40.13;;
46749;Laerm;33775;47.992;11.864;2023-08-24T03:25:20;36.86;28.67;39.92;;
46749;Laerm;33775;47.992;11.864;2023-08-24T03:27:46;36.88;29.92;39.46;;
46749;Laerm;33775;47.992;11.864;2023-08-24T03:30:11;36.85;28.67;39.70;;
46749;Laerm;33775;47.992;11.864;2023-08-24T03:32:36;36.87;28.67;39.58;;
46749;Laerm;33775;47.992;11.864;2023-08-24T03:35:02;36.84;29.92;40.03;;
46749;Laerm;33775;47.992;11.864;2023-08-24T03:37:28;36.88;26.91;39.70;;
46749;Laerm;33775;47.992;11.864;2023-08-24T03:39:53;36.88;29.92;39.70;;
46749;Laerm;33775;47.992;11.864;2023-08-24T03:42:18;36.85;30.89;39.57;;
46749;Laerm;33775;47.992;11.864;2023-08-24T03:44:43;36.89;28.67;40.03;;
46749;Laerm;33775;47.992;11.864;2023-08-24T03:47:09;36.89;30.89;39.81;;
46749;Laerm;33775;47.992;11.864;2023-08-24T03:49:34;36.93;29.92;39.70;;
46749;Laerm;33775;47.992;11.864;2023-08-24T03:51:59;36.92;29.92;40.03;;
46749;Laerm;33775;47.992;11.864;2023-08-24T03:54:24;36.86;28.67;39.99;;
46749;Laerm;33775;47.992;11.864;2023-08-24T03:56:49;36.87;29.92;39.58;;
46749;Laerm;33775;47.992;11.864;2023-08-24T03:59:14;36.88;29.92;39.70;;
46749;Laerm;33775;47.992;11.864;2023-08-24T04:01:40;36.87;30.89;39.58;;
46749;Laerm;33775;47.992;11.864;2023-08-24T04:04:05;36.83;29.92;39.46;;
46749;Laerm;33775;47.992;11.864;2023-08-24T04:06:30;36.83;29.92;39.35;;
46749;Laerm;33775;47.992;11.864;2023-08-24T04:08:55;36.84;28.67;39.70;;
46749;Laerm;33775;47.992;11.864;2023-08-24T04:11:20;36.85;30.89;39.81;;
46749;Laerm;33775;47.992;11.864;2023-08-24T04:13:46;36.72;28.67;39.70;;
46749;Laerm;33775;47.992;11.864;2023-08-24T04:16:11;36.85;29.92;39.46;;
46749;Laerm;33775;47.992;11.864;2023-08-24T04:18:36;36.90;29.92;39.58;;
46749;Laerm;33775;47.992;11.864;2023-08-24T04:21:01;36.84;30.89;39.46;;
46749;Laerm;33775;47.992;11.864;2023-08-24T04:23:27;36.86;31.33;39.34;;
46749;Laerm;33775;47.992;11.864;2023-08-24T04:25:52;36.84;30.89;39.70;;
46749;Laerm;33775;47.992;11.864;2023-08-24T04:28:18;36.79;28.67;39.58;;
46749;Laerm;33775;47.992;11.864;2023-08-24T04:30:50;36.84;31.68;39.92;;
46749;Laerm;33775;47.992;11.864;2023-08-24T04:33:16;36.82;29.92;39.81;;
46749;Laerm;33775;47.992;11.864;2023-08-24T04:35:41;36.85;29.92;39.70;;
46749;Laerm;33775;47.992;11.864;2023-08-24T04:38:06;36.82;29.92;39.46;;
46749;Laerm;33775;47.992;11.864;2023-08-24T04:40:45;36.82;28.67;39.92;;
46749;Laerm;33775;47.992;11.864;2023-08-24T04:43:10;36.83;30.89;39.58;;
46749;Laerm;33775;47.992;11.864;2023-08-24T04:45:36;36.83;31.68;39.46;;
46749;Laerm;33775;47.992;11.864;2023-08-24T04:48:01;36.85;28.67;39.58;;
46749;Laerm;33775;47.992;11.864;2023-08-24T04:50:27;36.86;30.89;39.58;;
46749;Laerm;33775;47.992;11.864;2023-08-24T04:52:53;36.77;28.67;39.81;;
46749;Laerm;33775;47.992;11.864;2023-08-24T04:55:18;36.77;28.32;39.58;;
46749;Laerm;33775;47.992;11.864;2023-08-24T04:57:43;36.75;30.89;39.92;;
46749;Laerm;33775;47.992;11.864;2023-08-24T05:00:08;36.71;29.92;39.46;;
46749;Laerm;33775;47.992;11.864;2023-08-24T05:02:34;36.73;30.89;39.46;;
46749;Laerm;33775;47.992;11.864;2023-08-24T05:04:59;36.75;29.92;39.34;;
46749;Laerm;33775;47.992;11.864;2023-08-24T05:07:24;36.75;28.67;39.46;;
46749;Laerm;33775;47.992;11.864;2023-08-24T05:09:50;36.78;30.89;39.81;;
46749;Laerm;33775;47.992;11.864;2023-08-24T05:12:15;36.78;29.92;39.70;;
46749;Laerm;33775;47.992;11.864;2023-08-24T05:14:40;36.76;29.57;39.78;;
46749;Laerm;33775;47.992;11.864;2023-08-24T05:17:05;36.79;26.91;39.70;;
46749;Laerm;33775;47.992;11.864;2023-08-24T05:19:30;36.73;28.67;39.46;;
46749;Laerm;33775;47.992;11.864;2023-08-24T05:21:56;36.68;29.92;39.58;;
46749;Laerm;33775;47.992;11.864;2023-08-24T05:24:21;36.70;29.92;39.46;;
46749;Laerm;33775;47.992;11.864;2023-08-24T05:26:46;36.68;30.54;39.34;;
46749;Laerm;33775;47.992;11.864;2023-08-24T05:29:11;36.65;29.92;39.46;;
46749;Laerm;33775;47.992;11.864;2023-08-24T05:31:36;36.64;29.92;39.23;;
46749;Laerm;33775;47.992;11.864;2023-08-24T05:34:01;36.60;30.89;39.46;;
46749;Laerm;33775;47.992;11.864;2023-08-24T05:36:27;36.63;31.33;39.46;;
46749;Laerm;33775;47.992;11.864;2023-08-24T05:38:52;36.62;30.89;39.58;;
46749;Laerm;33775;47.992;11.864;2023-08-24T05:41:21;36.64;28.67;39.58;;
46749;Laerm;33775;47.992;11.864;2023-08-24T05:43:46;36.62;29.92;39.34;;
46749;Laerm;33775;47.992;11.864;2023-08-24T05:46:11;36.64;28.67;39.70;;
46749;Laerm;33775;47.992;11.864;2023-08-24T05:48:36;36.66;30.89;39.46;;
46749;Laerm;33775;47.992;11.864;2023-08-24T05:51:01;36.67;28.67;39.70;;
46749;Laerm;33775;47.992;11.864;2023-08-24T05:53:26;36.67;29.92;39.58;;
46749;Laerm;33775;47.992;11.864;2023-08-24T05:55:56;36.67;30.89;39.58;;
46749;Laerm;33775;47.992;11.864;2023-08-24T05:58:21;36.65;30.89;39.58;;
46749;Laerm;33775;47.992;11.864;2023-08-24T06:00:47;36.69;30.89;39.58;;
46749;Laerm;33775;47.992;11.864;2023-08-24T06:03:13;36.68;30.89;39.46;;
46749;Laerm;33775;47.992;11.864;2023-08-24T06:05:38;36.68;30.89;39.58;;
46749;Laerm;33775;47.992;11.864;2023-08-24T06:08:05;36.71;30.89;39.34;;
46749;Laerm;33775;47.992;11.864;2023-08-24T06:10:30;36.74;31.68;39.81;;
46749;Laerm;33775;47.992;11.864;2023-08-24T06:12:55;36.71;29.92;39.70;;
46749;Laerm;33775;47.992;11.864;2023-08-24T06:15:21;36.72;31.33;39.58;;
46749;Laerm;33775;47.992;11.864;2023-08-24T06:17:49;36.81;32.35;39.58;;
46749;Laerm;33775;47.992;11.864;2023-08-24T06:20:14;36.84;31.68;39.81;;
46749;Laerm;33775;47.992;11.864;2023-08-24T06:22:40;36.94;31.68;39.92;;
46749;Laerm;33775;47.992;11.864;2023-08-24T06:25:05;37.01;30.89;39.58;;
46749;Laerm;33775;47.992;11.864;2023-08-24T06:27:33;37.05;30.89;39.81;;
46749;Laerm;33775;47.992;11.864;2023-08-24T06:29:58;37.12;33.44;40.03;;
46749;Laerm;33775;47.992;11.864;2023-08-24T06:32:24;37.11;32.35;40.03;;
46749;Laerm;33775;47.992;11.864;2023-08-24T06:34:49;37.11;33.44;39.92;;
46749;Laerm;33775;47.992;11.864;2023-08-24T06:37:14;37.15;32.93;40.03;;
46749;Laerm;33775;47.992;11.864;2023-08-24T06:39:39;37.17;32.93;39.89;;
46749;Laerm;33775;47.992;11.864;2023-08-24T06:42:05;37.19;31.68;39.92;;
46749;Laerm;33775;47.992;11.864;2023-08-24T06:44:30;37.25;32.93;40.08;;
46749;Laerm;33775;47.992;11.864;2023-08-24T06:46:55;37.26;33.44;39.92;;
46749;Laerm;33775;47.992;11.864;2023-08-24T06:49:21;37.32;33.44;40.03;;
46749;Laerm;33775;47.992;11.864;2023-08-24T06:51:46;37.34;32.35;40.13;;
46749;Laerm;33775;47.992;11.864;2023-08-24T06:54:11;37.39;32.93;40.13;;
46749;Laerm;33775;47.992;11.864;2023-08-24T06:56:36;37.49;33.90;39.92;;
46749;Laerm;33775;47.992;11.864;2023-08-24T06:59:01;37.55;33.44;40.33;;
46749;Laerm;33775;47.992;11.864;2023-08-24T07:01:27;37.55;33.44;40.13;;
46749;Laerm;33775;47.992;11.864;2023-08-24T07:03:52;37.43;33.44;40.33;;
46749;Laerm;33775;47.992;11.864;2023-08-24T07:06:17;37.30;32.35;40.23;;
46749;Laerm;33775;47.992;11.864;2023-08-24T07:08:42;37.28;32.93;40.03;;
46749;Laerm;33775;47.992;11.864;2023-08-24T07:11:08;37.30;32.35;40.23;;
46749;Laerm;33775;47.992;11.864;2023-08-24T07:13:33;37.33;32.93;39.81;;
46749;Laerm;33775;47.992;11.864;2023-08-24T07:15:59;37.38;32.35;40.33;;
46749;Laerm;33775;47.992;11.864;2023-08-24T07:18:25;37.43;32.35;39.92;;
46749;Laerm;33775;47.992;11.864;2023-08-24T07:20:50;37.44;33.44;40.89;;
46749;Laerm;33775;47.992;11.864;2023-08-24T07:23:15;37.46;33.90;39.92;;
46749;Laerm;33775;47.992;11.864;2023-08-24T07:25:40;37.49;33.90;40.53;;
46749;Laerm;33775;47.992;11.864;2023-08-24T07:28:06;37.50;32.93;40.36;;
46749;Laerm;33775;47.992;11.864;2023-08-24T07:30:32;37.55;32.93;40.03;;
46749;Laerm;33775;47.992;11.864;2023-08-24T07:32:57;37.52;33.90;39.81;;
46749;Laerm;33775;47.992;11.864;2023-08-24T07:35:22;37.53;33.90;40.23;;
46749;Laerm;33775;47.992;11.864;2023-08-24T07:37:50;37.53;32.93;40.53;;
46749;Laerm;33775;47.992;11.864;2023-08-24T07:40:15;37.55;33.44;40.98;;
46749;Laerm;33775;47.992;11.864;2023-08-24T07:42:44;37.57;33.90;40.03;;
46749;Laerm;33775;47.992;11.864;2023-08-24T07:45:09;37.56;33.90;40.43;;
46749;Laerm;33775;47.992;11.864;2023-08-24T07:47:34;37.56;33.44;40.43;;
46749;Laerm;33775;47.992;11.864;2023-08-24T07:50:00;37.56;33.90;40.33;;
46749;Laerm;33775;47.992;11.864;2023-08-24T07:52:26;37.60;33.90;40.13;;
46749;Laerm;33775;47.992;11.864;2023-08-24T07:54:56;37.59;32.93;40.43;;
46749;Laerm;33775;47.992;11.864;2023-08-24T07:57:24;37.59;31.68;40.53;;
46749;Laerm;33775;47.992;11.864;2023-08-24T07:59:51;37.60;32.93;40.23;;
46749;Laerm;33775;47.992;11.864;2023-08-24T08:02:16;37.60;33.90;40.23;;
46749;Laerm;33775;47.992;11.864;2023-08-24T08:04:41;37.57;32.93;40.43;;
46749;Laerm;33775;47.992;11.864;2023-08-24T08:07:07;37.58;33.90;40.33;;
46749;Laerm;33775;47.992;11.864;2023-08-24T08:09:32;37.60;33.44;40.33;;
46749;Laerm;33775;47.992;11.864;2023-08-24T08:11:57;37.60;33.90;40.71;;
46749;Laerm;33775;47.992;11.864;2023-08-24T08:14:22;37.58;32.93;40.71;;
46749;Laerm;33775;47.992;11.864;2023-08-24T08:16:48;37.59;32.93;40.33;;
46749;Laerm;33775;47.992;11.864;2023-08-24T08:19:14;37.60;32.93;40.33;;
46749;Laerm;33775;47.992;11.864;2023-08-24T08:21:39;37.56;33.44;40.23;;
46749;Laerm;33775;47.992;11.864;2023-08-24T08:24:04;37.58;32.93;40.71;;
46749;Laerm;33775;47.992;11.864;2023-08-24T08:26:29;37.58;33.44;40.23;;
46749;Laerm;33775;47.992;11.864;2023-08-24T08:28:55;37.55;33.44;40.43;;
46749;Laerm;33775;47.992;11.864;2023-08-24T08:31:20;37.57;33.90;40.33;;
46749;Laerm;33775;47.992;11.864;2023-08-24T08:33:45;37.57;33.55;40.33;;
46749;Laerm;33775;47.992;11.864;2023-08-24T08:36:10;37.56;32.35;40.62;;
46749;Laerm;33775;47.992;11.864;2023-08-24T08:38:35;37.55;32.93;40.23;;
46749;Laerm;33775;47.992;11.864;2023-08-24T08:41:04;37.56;33.44;40.18;;
46749;Laerm;33775;47.992;11.864;2023-08-24T08:43:29;37.55;32.93;40.27;;
46749;Laerm;33775;47.992;11.864;2023-08-24T08:45:58;37.57;32.93;40.13;;
46749;Laerm;33775;47.992;11.864;2023-08-24T08:48:24;37.55;32.35;40.13;;
46749;Laerm;33775;47.992;11.864;2023-08-24T08:50:49;37.52;33.90;40.23;;
46749;Laerm;33775;47.992;11.864;2023-08-24T08:53:15;37.53;33.44;40.23;;
46749;Laerm;33775;47.992;11.864;2023-08-24T08:55:40;37.54;32.35;40.33;;
46749;Laerm;33775;47.992;11.864;2023-08-24T08:58:06;37.51;33.44;40.03;;
46749;Laerm;33775;47.992;11.864;2023-08-24T09:00:31;37.50;31.68;40.33;;
46749;Laerm;33775;47.992;11.864;2023-08-24T09:02:57;37.52;33.44;40.53;;
46749;Laerm;33775;47.992;11.864;2023-08-24T09:05:22;37.53;32.35;40.23;;
46749;Laerm;33775;47.992;11.864;2023-08-24T09:07:51;37.48;32.93;40.23;;
46749;Laerm;33775;47.992;11.864;2023-08-24T09:10:16;37.51;32.93;40.13;;
46749;Laerm;33775;47.992;11.864;2023-08-24T09:12:41;37.51;32.93;40.13;;
46749;Laerm;33775;47.992;11.864;2023-08-24T09:15:07;37.49;33.44;40.23;;
46749;Laerm;33775;47.992;11.864;2023-08-24T09:17:32;37.49;33.44;40.43;;
46749;Laerm;33775;47.992;11.864;2023-08-24T09:19:58;37.50;32.35;39.92;;
46749;Laerm;33775;47.992;11.864;2023-08-24T09:22:24;37.52;33.44;40.33;;
46749;Laerm;33775;47.992;11.864;2023-08-24T09:24:49;37.51;33.44;40.62;;
46749;Laerm;33775;47.992;11.864;2023-08-24T09:27:20;37.50;32.93;40.33;;
46749;Laerm;33775;47.992;11.864;2023-08-24T09:29:51;37.49;30.89;40.23;;
46749;Laerm;33775;47.992;11.864;2023-08-24T09:32:23;37.48;32.35;40.33;;
46749;Laerm;33775;47.992;11.864;2023-08-24T09:34:48;37.47;32.93;40.23;;
46749;Laerm;33775;47.992;11.864;2023-08-24T09:37:14;37.42;30.89;40.43;;
46749;Laerm;33775;47.992;11.864;2023-08-24T09:39:40;37.43;32.35;40.43;;
46749;Laerm;33775;47.992;11.864;2023-08-24T09:42:05;37.43;30.89;40.23;;
46749;Laerm;33775;47.992;11.864;2023-08-24T09:44:30;37.39;32.93;40.13;;
46749;Laerm;33775;47.992;11.864;2023-08-24T09:46:56;37.40;31.68;40.03;;
46749;Laerm;33775;47.992;11.864;2023-08-24T09:49:21;37.41;31.68;40.89;;
46749;Laerm;33775;47.992;11.864;2023-08-24T09:51:46;37.42;32.35;40.53;;
46749;Laerm;33775;47.992;11.864;2023-08-24T09:54:12;37.40;32.35;40.13;;
46749;Laerm;33775;47.992;11.864;2023-08-24T09:56:40;37.43;31.68;40.33;;
46749;Laerm;33775;47.992;11.864;2023-08-24T09:59:13;37.47;30.89;40.03;;
46749;Laerm;33775;47.992;11.864;2023-08-24T10:01:41;37.45;32.93;40.23;;
46749;Laerm;33775;47.992;11.864;2023-08-24T10:04:07;37.46;32.35;40.13;;
46749;Laerm;33775;47.992;11.864;2023-08-24T10:06:33;37.41;32.35;40.23;;
46749;Laerm;33775;47.992;11.864;2023-08-24T10:09:01;37.43;32.93;40.33;;
46749;Laerm;33775;47.992;11.864;2023-08-24T10:11:29;37.41;32.35;40.33;;
46749;Laerm;33775;47.992;11.864;2023-08-24T10:13:58;37.49;32.35;40.23;;
46749;Laerm;33775;47.992;11.864;2023-08-24T10:16:25;37.41;32.35;40.33;;
46749;Laerm;33775;47.992;11.864;2023-08-24T10:18:52;37.39;32.35;40.33;;
46749;Laerm;33775;47.992;11.864;2023-08-24T10:21:17;37.45;32.35;40.23;;
46749;Laerm;33775;47.992;11.864;2023-08-24T10:23:42;37.45;32.93;40.23;;
46749;Laerm;33775;47.992;11.864;2023-08-24T10:26:08;37.40;29.92;40.62;;
46749;Laerm;33775;47.992;11.864;2023-08-24T10:28:35;37.42;30.89;40.80;;
46749;Laerm;33775;47.992;11.864;2023-08-24T10:31:01;37.45;32.35;40.43;;
46749;Laerm;33775;47.992;11.864;2023-08-24T10:33:27;37.40;30.89;40.13;;
46749;Laerm;33775;47.992;11.864;2023-08-24T10:35:54;37.39;29.92;40.23;;
46749;Laerm;33775;47.992;11.864;2023-08-24T10:38:23;37.45;33.44;39.92;;
46749;Laerm;33775;47.992;11.864;2023-08-24T10:40:49;37.44;32.35;40.33;;
46749;Laerm;33775;47.992;11.864;2023-08-24T10:43:15;37.42;32.35;40.33;;
46749;Laerm;33775;47.992;11.864;2023-08-24T10:45:54;37.42;32.35;43.72;;
46749;Laerm;33775;47.992;11.864;2023-08-24T10:48:19;37.45;32.93;40.33;;
46749;Laerm;33775;47.992;11.864;2023-08-24T10:51:08;37.46;32.35;40.53;;
46749;Laerm;33775;47.992;11.864;2023-08-24T10:56:15;37.41;31.68;40.53;;
46749;Laerm;33775;47.992;11.864;2023-08-24T10:58:41;37.31;31.68;39.92;;
46749;Laerm;33775;47.992;11.864;2023-08-24T11:01:06;37.32;31.68;40.23;;
46749;Laerm;33775;47.992;11.864;2023-08-24T11:03:31;37.38;31.68;40.33;;
46749;Laerm;33775;47.992;11.864;2023-08-24T11:05:57;37.41;30.89;40.80;;
46749;Laerm;33775;47.992;11.864;2023-08-24T11:08:23;37.42;31.68;40.33;;
46749;Laerm;33775;47.992;11.864;2023-08-24T11:11:17;37.46;32.93;40.53;;
46749;Laerm;33775;47.992;11.864;2023-08-24T11:14:10;37.46;29.92;40.71;;
46749;Laerm;33775;47.992;11.864;2023-08-24T11:16:41;37.46;31.68;40.33;;
46749;Laerm;33775;47.992;11.864;2023-08-24T11:19:07;37.47;32.35;40.53;;
46749;Laerm;33775;47.992;11.864;2023-08-24T11:21:33;37.46;32.35;40.23;;
46749;Laerm;33775;47.992;11.864;2023-08-24T11:23:59;37.44;32.35;40.33;;
46749;Laerm;33775;47.992;11.864;2023-08-24T11:26:24;37.47;32.35;40.13;;
46749;Laerm;33775;47.992;11.864;2023-08-24T11:28:52;37.43;32.35;40.23;;
46749;Laerm;33775;47.992;11.864;2023-08-24T11:31:18;37.47;31.68;43.09;;
46749;Laerm;33775;47.992;11.864;2023-08-24T11:33:43;37.45;32.35;40.23;;
46749;Laerm;33775;47.992;11.864;2023-08-24T11:36:09;37.48;31.68;40.89;;
46749;Laerm;33775;47.992;11.864;2023-08-24T11:38:40;37.42;32.35;40.23;;
46749;Laerm;33775;47.992;11.864;2023-08-24T11:41:12;37.43;32.35;40.62;;
46749;Laerm;33775;47.992;11.864;2023-08-24T11:43:38;37.41;31.68;40.71;;
46749;Laerm;33775;47.992;11.864;2023-08-24T11:46:03;37.40;32.58;40.03;;
46749;Laerm;33775;47.992;11.864;2023-08-24T11:48:28;37.36;30.89;40.03;;
46749;Laerm;33775;47.992;11.864;2023-08-24T11:50:55;37.34;32.93;40.53;;
46749;Laerm;33775;47.992;11.864;2023-08-24T11:53:21;37.37;32.35;40.13;;
46749;Laerm;33775;47.992;11.864;2023-08-24T11:55:47;37.37;32.35;40.03;;
46749;Laerm;33775;47.992;11.864;2023-08-24T11:58:13;37.36;28.67;40.80;;
46749;Laerm;33775;47.992;11.864;2023-08-24T12:00:38;37.30;31.68;40.33;;
46749;Laerm;33775;47.992;11.864;2023-08-24T12:03:04;37.35;29.92;40.62;;
46749;Laerm;33775;47.992;11.864;2023-08-24T12:05:29;37.32;30.89;40.62;;
46749;Laerm;33775;47.992;11.864;2023-08-24T12:07:54;37.20;30.89;40.33;;
46749;Laerm;33775;47.992;11.864;2023-08-24T12:10:20;37.16;30.89;40.53;;
46749;Laerm;33775;47.992;11.864;2023-08-24T12:12:46;37.16;32.35;40.33;;
46749;Laerm;33775;47.992;11.864;2023-08-24T12:15:15;37.28;32.35;40.13;;
46749;Laerm;33775;47.992;11.864;2023-08-24T12:17:43;37.33;32.35;40.33;;
46749;Laerm;33775;47.992;11.864;2023-08-24T12:20:17;37.27;31.68;40.62;;
46749;Laerm;33775;47.992;11.864;2023-08-24T12:22:43;37.25;32.35;40.43;;
46749;Laerm;33775;47.992;11.864;2023-08-24T12:25:08;37.31;29.57;40.13;;
46749;Laerm;33775;47.992;11.864;2023-08-24T12:27:33;37.32;29.92;40.23;;
46749;Laerm;33775;47.992;11.864;2023-08-24T12:30:02;37.33;32.35;40.53;;
46749;Laerm;33775;47.992;11.864;2023-08-24T12:32:30;37.30;32.35;40.13;;
46749;Laerm;33775;47.992;11.864;2023-08-24T12:35:06;37.28;31.68;40.23;;
46749;Laerm;33775;47.992;11.864;2023-08-24T12:37:31;37.30;30.89;40.53;;
46749;Laerm;33775;47.992;11.864;2023-08-24T12:39:57;37.29;30.89;40.43;;
46749;Laerm;33775;47.992;11.864;2023-08-24T12:42:22;37.29;32.00;40.33;;
46749;Laerm;33775;47.992;11.864;2023-08-24T12:44:47;37.29;32.93;40.43;;
46749;Laerm;33775;47.992;11.864;2023-08-24T12:47:12;37.29;32.35;40.43;;
46749;Laerm;33775;47.992;11.864;2023-08-24T12:49:37;37.28;29.92;40.13;;
46749;Laerm;33775;47.992;11.864;2023-08-24T12:52:03;37.30;29.92;40.33;;
46749;Laerm;33775;47.992;11.864;2023-08-24T12:54:28;37.25;32.35;40.43;;
46749;Laerm;33775;47.992;11.864;2023-08-24T12:56:53;37.23;31.33;40.23;;
46749;Laerm;33775;47.992;11.864;2023-08-24T12:59:18;37.26;31.68;40.13;;
46749;Laerm;33775;47.992;11.864;2023-08-24T13:01:43;37.21;32.35;40.13;;
46749;Laerm;33775;47.992;11.864;2023-08-24T13:04:09;37.24;32.35;40.53;;
46749;Laerm;33775;47.992;11.864;2023-08-24T13:06:34;37.23;30.89;40.13;;
46749;Laerm;33775;47.992;11.864;2023-08-24T13:08:59;37.17;29.92;40.80;;
46749;Laerm;33775;47.992;11.864;2023-08-24T13:11:24;37.13;31.33;40.08;;
46749;Laerm;33775;47.992;11.864;2023-08-24T13:13:49;37.15;30.89;39.70;;
46749;Laerm;33775;47.992;11.864;2023-08-24T13:16:15;37.23;32.35;39.81;;
46749;Laerm;33775;47.992;11.864;2023-08-24T13:18:40;37.26;31.68;40.62;;
46749;Laerm;33775;47.992;11.864;2023-08-24T13:21:05;37.22;31.68;40.43;;
46749;Laerm;33775;47.992;11.864;2023-08-24T13:23:30;37.23;32.93;39.92;;
46749;Laerm;33775;47.992;11.864;2023-08-24T13:28:25;37.26;30.89;40.03;;
46749;Laerm;33775;47.992;11.864;2023-08-24T13:30:50;37.22;30.89;40.43;;
46749;Laerm;33775;47.992;11.864;2023-08-24T13:33:15;37.24;31.68;40.13;;